Time;durP1;ratioP1;P1;durP2;ratioP2;P2;SDS_P1;SDS_P2;PMS_P1;PMS_P2;Temp;Humidity;BMP_temperature;BMP_pressure;BME280_temperature;BME280_humidity;BME280_pressure;Samples;Min_cycle;Max_cycle;Signal;HPM_P1;HPM_P2
2023/12/02 00:01:37;;;;;;;20.88;13.48;;;22.90;40.40;;;;;;6170936;28;83132;-60
2023/12/02 00:04:37;;;;;;;18.70;12.98;;;22.80;40.20;;;;;;6168200;28;83372;-60
2023/12/02 00:07:38;;;;;;;19.33;13.15;;;22.80;40.00;;;;;;6174413;28;84862;-60
2023/12/02 00:10:38;;;;;;;18.75;12.43;;;22.80;40.10;;;;;;6175275;28;86861;-59
2023/12/02 00:13:39;;;;;;;18.35;12.32;;;22.80;40.50;;;;;;6171284;28;83116;-59
2023/12/02 00:16:39;;;;;;;19.90;12.50;;;22.80;40.30;;;;;;6175740;28;83282;-59
2023/12/02 00:19:40;;;;;;;18.33;12.15;;;22.80;40.00;;;;;;6173597;28;83047;-59
2023/12/02 00:22:40;;;;;;;19.42;12.63;;;22.80;40.00;;;;;;6173942;28;84167;-59
2023/12/02 00:25:41;;;;;;;22.20;12.95;;;22.80;40.20;;;;;;6173340;28;82916;-59
2023/12/02 00:28:41;;;;;;;19.17;11.55;;;22.80;40.00;;;;;;6173582;28;82895;-58
2023/12/02 00:31:42;;;;;;;19.83;12.50;;;22.80;40.30;;;;;;6173392;28;83252;-58
2023/12/02 00:34:42;;;;;;;18.48;11.27;;;22.80;40.10;;;;;;6173658;28;83267;-58
2023/12/02 00:37:43;;;;;;;17.40;11.38;;;22.80;40.10;;;;;;6173786;28;83374;-58
2023/12/02 00:40:43;;;;;;;18.70;12.35;;;22.80;39.90;;;;;;6164346;28;84216;-59
2023/12/02 00:43:44;;;;;;;16.08;10.70;;;22.80;39.70;;;;;;6171424;28;83372;-59
2023/12/02 00:46:44;;;;;;;15.80;10.75;;;22.80;39.50;;;;;;6163241;28;83297;-61
2023/12/02 00:49:45;;;;;;;16.35;11.00;;;22.80;39.20;;;;;;6169570;28;83288;-61
2023/12/02 00:52:45;;;;;;;17.95;12.00;;;22.70;39.70;;;;;;6171428;28;83955;-61
2023/12/02 00:55:46;;;;;;;15.63;10.88;;;22.70;39.20;;;;;;6169613;28;85090;-61
2023/12/02 00:58:46;;;;;;;17.10;10.77;;;22.70;38.80;;;;;;6173407;28;83395;-61
2023/12/02 01:01:47;;;;;;;15.25;10.50;;;22.70;39.10;;;;;;6167145;28;83473;-62
2023/12/02 01:04:47;;;;;;;15.45;9.75;;;22.70;39.10;;;;;;6163812;28;83427;-62
2023/12/02 01:07:48;;;;;;;15.10;10.07;;;22.70;39.30;;;;;;6175939;28;81653;-63
2023/12/02 01:10:48;;;;;;;15.43;10.25;;;22.70;39.30;;;;;;6170274;28;83427;-61
2023/12/02 01:13:49;;;;;;;15.45;10.43;;;22.70;39.30;;;;;;6172151;28;84017;-61
2023/12/02 01:16:49;;;;;;;16.20;10.50;;;22.70;39.10;;;;;;6173094;28;83204;-61
2023/12/02 01:19:50;;;;;;;13.82;9.30;;;22.70;39.00;;;;;;6173707;28;84820;-62
2023/12/02 01:22:50;;;;;;;15.00;9.73;;;22.70;39.30;;;;;;6176356;28;82773;-63
2023/12/02 01:25:51;;;;;;;15.43;9.63;;;22.70;39.80;;;;;;6174209;28;82639;-64
2023/12/02 01:28:51;;;;;;;13.07;9.15;;;22.70;39.60;;;;;;6175409;28;81574;-67
2023/12/02 01:31:52;;;;;;;14.60;9.85;;;22.70;39.60;;;;;;6159797;28;81142;-69
2023/12/02 01:34:52;;;;;;;16.40;8.63;;;22.70;39.40;;;;;;6174867;28;81265;-70
2023/12/02 01:37:53;;;;;;;14.52;9.13;;;22.70;39.30;;;;;;6168050;28;80398;-66
2023/12/02 01:40:53;;;;;;;12.85;9.30;;;22.70;39.50;;;;;;6173566;28;80821;-59
2023/12/02 01:43:54;;;;;;;13.63;8.30;;;22.70;39.30;;;;;;6177153;28;81916;-59
2023/12/02 01:46:54;;;;;;;12.50;7.95;;;22.70;39.10;;;;;;6174487;28;80367;-58
2023/12/02 01:49:55;;;;;;;14.00;9.07;;;22.60;39.20;;;;;;6174313;28;80732;-58
2023/12/02 01:52:55;;;;;;;13.43;9.05;;;22.60;39.20;;;;;;6176012;28;80963;-60
2023/12/02 01:55:56;;;;;;;13.15;8.60;;;22.60;39.20;;;;;;6175821;28;80575;-59
2023/12/02 01:58:57;;;;;;;12.32;8.30;;;22.60;39.20;;;;;;6176432;28;80781;-59
2023/12/02 02:01:57;;;;;;;11.77;7.43;;;22.60;39.20;;;;;;6167272;28;80858;-63
2023/12/02 02:04:58;;;;;;;12.25;8.02;;;22.60;39.00;;;;;;6174036;28;80267;-64
2023/12/02 02:07:58;;;;;;;11.65;7.85;;;22.60;39.10;;;;;;6176725;28;82367;-62
2023/12/02 02:10:59;;;;;;;10.15;7.38;;;22.60;38.90;;;;;;6176746;28;85079;-65
2023/12/02 02:13:59;;;;;;;12.70;8.32;;;22.60;39.10;;;;;;6177731;28;81128;-66
2023/12/02 02:17:00;;;;;;;12.13;8.07;;;22.60;39.00;;;;;;6167661;28;80775;-65
2023/12/02 02:20:00;;;;;;;11.15;7.45;;;22.50;39.10;;;;;;6175252;28;80561;-59
2023/12/02 02:23:01;;;;;;;11.10;7.60;;;22.50;39.20;;;;;;6172491;28;80548;-60
2023/12/02 02:26:01;;;;;;;11.43;7.45;;;22.50;39.10;;;;;;6176433;28;80997;-60
2023/12/02 02:29:01;;;;;;;12.13;7.85;;;22.50;39.30;;;;;;6173994;28;81105;-60
2023/12/02 02:32:02;;;;;;;11.57;7.30;;;22.50;39.20;;;;;;6172520;28;80800;-60
2023/12/02 02:35:03;;;;;;;11.55;7.63;;;22.60;39.00;;;;;;6174227;28;82024;-60
2023/12/02 02:38:03;;;;;;;10.27;7.22;;;22.50;38.70;;;;;;6174928;28;80394;-67
2023/12/02 02:41:04;;;;;;;11.30;7.53;;;22.50;38.50;;;;;;6174988;28;81306;-63
2023/12/02 02:44:04;;;;;;;10.55;7.30;;;22.50;38.20;;;;;;6175012;28;80716;-65
2023/12/02 02:47:05;;;;;;;11.45;7.57;;;22.60;38.10;;;;;;6174326;28;80692;-64
2023/12/02 02:50:05;;;;;;;10.30;7.10;;;22.50;38.20;;;;;;6176088;28;80371;-63
2023/12/02 02:53:06;;;;;;;10.95;7.53;;;22.60;38.00;;;;;;6174021;28;80309;-63
2023/12/02 02:56:06;;;;;;;11.35;7.18;;;22.50;38.10;;;;;;6174277;28;81904;-61
2023/12/02 02:59:07;;;;;;;9.60;6.55;;;22.50;38.10;;;;;;6176472;28;80588;-61
2023/12/02 03:02:08;;;;;;;11.73;7.38;;;22.50;38.80;;;;;;6169957;28;80528;-61
2023/12/02 03:05:08;;;;;;;8.77;6.15;;;22.50;38.40;;;;;;6171123;28;80664;-60
2023/12/02 03:08:09;;;;;;;9.57;6.30;;;22.50;39.30;;;;;;6175579;28;80466;-61
2023/12/02 03:11:09;;;;;;;8.93;6.53;;;22.50;39.00;;;;;;6179627;28;80871;-61
2023/12/02 03:14:10;;;;;;;10.10;6.68;;;22.50;38.70;;;;;;6170218;28;88298;-60
2023/12/02 03:17:10;;;;;;;10.43;6.78;;;22.50;39.20;;;;;;6178892;28;81789;-62
2023/12/02 03:20:11;;;;;;;9.25;6.18;;;22.50;38.90;;;;;;6179347;28;80397;-60
2023/12/02 03:23:11;;;;;;;9.00;6.05;;;22.50;38.80;;;;;;6177870;28;81446;-61
2023/12/02 03:26:11;;;;;;;10.50;6.78;;;22.50;38.80;;;;;;6178152;28;80316;-61
2023/12/02 03:29:12;;;;;;;11.40;7.40;;;22.40;38.80;;;;;;6171285;28;80747;-61
2023/12/02 03:32:13;;;;;;;9.40;6.78;;;22.40;38.80;;;;;;6176876;28;80569;-58
2023/12/02 03:35:14;;;;;;;8.30;6.18;;;22.40;38.80;;;;;;6179188;28;80627;-59
2023/12/02 03:38:14;;;;;;;9.27;6.35;;;22.40;38.90;;;;;;6174231;28;80924;-60
2023/12/02 03:41:15;;;;;;;8.57;5.88;;;22.40;39.00;;;;;;6178252;28;80653;-59
2023/12/02 03:44:15;;;;;;;9.57;5.68;;;22.40;39.00;;;;;;6178382;28;80850;-60
2023/12/02 03:47:16;;;;;;;9.32;6.40;;;22.40;39.10;;;;;;6178311;28;80430;-59
2023/12/02 03:50:16;;;;;;;10.65;6.60;;;22.50;39.30;;;;;;6177901;28;81556;-59
2023/12/02 03:53:17;;;;;;;8.55;6.05;;;22.50;39.50;;;;;;6171841;28;81787;-58
2023/12/02 03:56:17;;;;;;;8.68;6.03;;;22.50;39.80;;;;;;6169521;28;81902;-59
2023/12/02 03:59:18;;;;;;;9.25;6.07;;;22.50;39.90;;;;;;6178026;28;80839;-59
2023/12/02 04:02:18;;;;;;;7.20;4.97;;;22.40;40.00;;;;;;6170094;28;81318;-59
2023/12/02 04:05:19;;;;;;;7.80;5.10;;;22.50;40.70;;;;;;6174442;28;87860;-61
2023/12/02 04:08:19;;;;;;;9.18;5.70;;;22.50;40.50;;;;;;6173478;28;85216;-60
2023/12/02 04:11:19;;;;;;;7.28;5.63;;;22.50;40.20;;;;;;6177490;28;80541;-59
2023/12/02 04:14:20;;;;;;;10.60;6.05;;;22.50;40.40;;;;;;6177869;28;81516;-58
2023/12/02 04:17:21;;;;;;;9.02;5.47;;;22.50;41.10;;;;;;6177747;28;82083;-56
2023/12/02 04:20:21;;;;;;;10.00;5.55;;;22.50;40.40;;;;;;6174254;28;80484;-58
2023/12/02 04:23:22;;;;;;;8.65;5.50;;;22.50;39.70;;;;;;6176582;28;80666;-58
2023/12/02 04:26:23;;;;;;;12.02;5.93;;;22.60;39.60;;;;;;6168048;28;80173;-57
2023/12/02 04:29:23;;;;;;;8.15;4.88;;;22.60;39.60;;;;;;6167688;28;81510;-72
2023/12/02 04:32:24;;;;;;;8.10;5.55;;;22.60;39.50;;;;;;6171280;28;80143;-69
2023/12/02 04:35:24;;;;;;;6.85;4.70;;;22.70;39.30;;;;;;6168710;28;80560;-66
2023/12/02 04:38:25;;;;;;;7.88;5.13;;;22.70;39.30;;;;;;6176228;28;80947;-66
2023/12/02 04:41:25;;;;;;;7.22;4.57;;;22.70;39.30;;;;;;6176470;28;81703;-64
2023/12/02 04:44:26;;;;;;;8.30;5.38;;;22.70;39.20;;;;;;6177911;28;80423;-65
2023/12/02 04:47:26;;;;;;;7.68;4.55;;;22.80;39.10;;;;;;6177233;28;80731;-63
2023/12/02 04:50:27;;;;;;;6.28;4.05;;;22.80;39.10;;;;;;6175043;28;81363;-64
2023/12/02 04:53:27;;;;;;;8.70;4.63;;;22.80;39.20;;;;;;6176843;28;81054;-64
2023/12/02 04:56:28;;;;;;;6.32;4.40;;;22.80;39.30;;;;;;6177261;28;80630;-64
2023/12/02 04:59:28;;;;;;;6.93;4.00;;;22.90;39.30;;;;;;6177047;28;80834;-64
2023/12/02 05:02:29;;;;;;;7.47;4.07;;;22.90;39.30;;;;;;6168346;28;80273;-65
2023/12/02 05:05:29;;;;;;;5.93;3.90;;;22.90;39.20;;;;;;6174073;28;81345;-71
2023/12/02 05:08:30;;;;;;;5.90;3.45;;;22.90;39.00;;;;;;6177448;28;81718;-71
2023/12/02 05:11:30;;;;;;;4.55;3.58;;;22.90;38.90;;;;;;6175889;28;81130;-70
2023/12/02 05:14:31;;;;;;;4.93;3.33;;;22.90;38.80;;;;;;6176620;28;81075;-69
2023/12/02 05:17:32;;;;;;;6.80;3.13;;;22.90;38.80;;;;;;6173798;28;80818;-71
2023/12/02 05:20:33;;;;;;;4.90;3.55;;;23.00;38.80;;;;;;6172595;28;82204;-74
2023/12/02 05:23:33;;;;;;;3.78;3.20;;;22.90;38.60;;;;;;6167489;28;80547;-60
2023/12/02 05:26:33;;;;;;;4.15;2.80;;;23.00;38.70;;;;;;6168281;28;81800;-60
2023/12/02 05:29:34;;;;;;;4.60;2.67;;;23.00;38.60;;;;;;6170132;28;81774;-62
2023/12/02 05:32:35;;;;;;;4.15;2.95;;;23.00;38.50;;;;;;6169689;28;80816;-62
2023/12/02 05:35:35;;;;;;;3.78;2.92;;;23.00;38.40;;;;;;6176429;28;81005;-62
2023/12/02 05:38:36;;;;;;;3.47;2.67;;;23.00;38.40;;;;;;6164695;28;82614;-62
2023/12/02 05:41:36;;;;;;;4.03;2.55;;;23.00;38.60;;;;;;6175148;28;80528;-62
2023/12/02 05:44:38;;;;;;;5.68;2.65;;;23.00;38.60;;;;;;6175646;28;80388;-62
2023/12/02 05:47:38;;;;;;;4.90;2.90;;;23.00;38.60;;;;;;6175891;28;81601;-61
2023/12/02 05:50:39;;;;;;;4.07;2.30;;;23.00;38.60;;;;;;6172546;28;80442;-62
2023/12/02 05:53:39;;;;;;;4.13;2.75;;;23.10;38.60;;;;;;6176696;28;80767;-63
2023/12/02 05:56:40;;;;;;;3.90;2.60;;;23.00;38.60;;;;;;6175716;28;81392;-61
2023/12/02 05:59:41;;;;;;;4.60;2.35;;;23.10;38.60;;;;;;6175980;28;80405;-71
2023/12/02 06:02:41;;;;;;;3.65;2.38;;;23.10;38.70;;;;;;6168969;28;80588;-71
2023/12/02 06:05:41;;;;;;;5.70;2.67;;;23.10;38.70;;;;;;6164853;28;80355;-69
2023/12/02 06:08:42;;;;;;;7.82;3.13;;;23.00;38.70;;;;;;6172340;28;81273;-70
2023/12/02 06:11:43;;;;;;;5.15;2.60;;;23.00;38.70;;;;;;6174916;28;80346;-68
2023/12/02 06:14:44;;;;;;;3.42;2.25;;;23.10;38.70;;;;;;6174749;28;81070;-68
2023/12/02 06:17:44;;;;;;;4.28;2.35;;;23.10;38.60;;;;;;6174988;28;80359;-60
2023/12/02 06:20:45;;;;;;;5.53;2.30;;;23.00;38.60;;;;;;6175849;28;82797;-59
2023/12/02 06:23:45;;;;;;;2.53;1.83;;;23.00;38.40;;;;;;6173911;28;80362;-59
2023/12/02 06:26:46;;;;;;;4.32;2.15;;;23.00;38.60;;;;;;6162972;28;80536;-59
2023/12/02 06:29:46;;;;;;;3.80;1.85;;;23.00;38.70;;;;;;6174810;28;81492;-60
2023/12/02 06:32:47;;;;;;;2.58;1.83;;;23.00;38.60;;;;;;6170360;28;80469;-59
2023/12/02 06:35:48;;;;;;;8.75;2.47;;;23.00;38.60;;;;;;6173677;28;82395;-62
2023/12/02 06:38:49;;;;;;;3.55;2.50;;;23.00;38.80;;;;;;6165459;28;82030;-61
2023/12/02 06:41:49;;;;;;;4.88;2.20;;;23.00;38.70;;;;;;6174569;28;83340;-61
2023/12/02 06:44:50;;;;;;;3.10;1.98;;;22.90;38.60;;;;;;6175205;28;80814;-60
2023/12/02 06:47:50;;;;;;;5.00;2.47;;;22.90;38.40;;;;;;6174197;28;83880;-65
2023/12/02 06:50:51;;;;;;;5.22;2.22;;;22.90;38.00;;;;;;6174893;28;81922;-61
2023/12/02 06:53:51;;;;;;;3.97;2.28;;;22.90;38.40;;;;;;6174737;28;81057;-62
2023/12/02 06:56:52;;;;;;;3.50;2.10;;;22.80;38.90;;;;;;6172661;28;82588;-66
2023/12/02 06:59:52;;;;;;;5.63;2.50;;;22.80;38.60;;;;;;6172205;28;81985;-68
2023/12/02 07:02:53;;;;;;;3.75;2.13;;;22.80;38.30;;;;;;6161882;28;83509;-65
2023/12/02 07:05:53;;;;;;;5.00;2.53;;;22.70;38.20;;;;;;6173784;28;81162;-66
2023/12/02 07:08:54;;;;;;;5.45;2.60;;;22.80;38.90;;;;;;6172356;28;82197;-62
2023/12/02 07:11:54;;;;;;;6.38;2.53;;;22.70;39.30;;;;;;6175195;28;81352;-58
2023/12/02 07:14:55;;;;;;;5.97;2.72;;;22.70;38.90;;;;;;6167440;28;80930;-59
2023/12/02 07:17:55;;;;;;;3.55;2.53;;;22.70;38.70;;;;;;6171435;28;81028;-61
2023/12/02 07:20:56;;;;;;;11.82;3.00;;;22.70;38.70;;;;;;6171903;28;80243;-59
2023/12/02 07:23:57;;;;;;;10.05;3.20;;;22.70;39.10;;;;;;6173598;28;80561;-59
2023/12/02 07:26:57;;;;;;;9.15;3.38;;;22.70;39.70;;;;;;6173868;28;80421;-60
2023/12/02 07:29:58;;;;;;;6.72;3.22;;;22.70;39.80;;;;;;6174606;28;81357;-63
2023/12/02 07:32:58;;;;;;;17.40;3.13;;;22.70;40.10;;;;;;6167751;28;80802;-64
2023/12/02 07:35:59;;;;;;;10.18;3.80;;;22.70;40.70;;;;;;6175879;28;80687;-64
2023/12/02 07:38:59;;;;;;;6.32;3.38;;;22.70;40.90;;;;;;6174085;28;80712;-65
2023/12/02 07:42:00;;;;;;;4.53;2.90;;;22.70;41.10;;;;;;6177802;28;80465;-63
2023/12/02 07:45:00;;;;;;;10.18;3.20;;;22.70;41.10;;;;;;6179123;28;80718;-64
2023/12/02 07:48:01;;;;;;;5.63;3.60;;;22.70;41.10;;;;;;6176933;28;80243;-65
2023/12/02 07:51:01;;;;;;;9.68;4.45;;;22.70;40.90;;;;;;6175312;28;81942;-63
2023/12/02 07:54:02;;;;;;;10.13;5.80;;;22.70;41.10;;;;;;6172518;28;80427;-64
2023/12/02 07:57:03;;;;;;;13.63;7.95;;;22.70;41.00;;;;;;6173977;28;83512;-63
2023/12/02 08:00:04;;;;;;;15.05;7.93;;;22.70;41.90;;;;;;6171086;28;81524;-63
2023/12/02 08:03:12;;;;;;;13.13;7.57;;;22.70;42.00;;;;;;6171880;28;82945;-63
2023/12/02 08:06:13;;;;;;;14.23;7.20;;;22.70;42.20;;;;;;6174366;28;80599;-63
2023/12/02 08:09:14;;;;;;;12.75;7.55;;;22.70;42.10;;;;;;6174240;28;81000;-60
2023/12/02 08:12:15;;;;;;;13.48;7.32;;;22.70;41.70;;;;;;6173434;28;83069;-59
2023/12/02 08:15:16;;;;;;;18.13;8.10;;;22.70;41.30;;;;;;6173439;28;80567;-59
2023/12/02 08:18:18;;;;;;;14.05;7.00;;;22.70;41.10;;;;;;6175343;28;80813;-60
2023/12/02 08:21:19;;;;;;;12.52;6.75;;;22.70;40.80;;;;;;6174054;28;84256;-61
2023/12/02 08:24:19;;;;;;;11.32;6.85;;;22.70;40.70;;;;;;6175219;28;80676;-61
2023/12/02 08:27:21;;;;;;;15.05;7.40;;;22.50;40.30;;;;;;6174950;28;80231;-62
2023/12/02 08:30:21;;;;;;;10.07;5.82;;;22.50;40.30;;;;;;6172854;28;86129;-63
2023/12/02 08:33:22;;;;;;;11.50;5.75;;;22.50;40.00;;;;;;6171791;28;82896;-63
2023/12/02 08:36:22;;;;;;;12.25;6.22;;;22.60;39.80;;;;;;6171767;28;84100;-62
2023/12/02 08:39:23;;;;;;;11.70;6.43;;;22.60;40.20;;;;;;6174523;28;82616;-61
2023/12/02 08:42:23;;;;;;;17.15;7.00;;;22.60;39.70;;;;;;6176493;28;80368;-62
2023/12/02 08:45:24;;;;;;;10.90;5.63;;;22.60;39.60;;;;;;6172091;28;82316;-60
2023/12/02 08:48:24;;;;;;;12.27;5.60;;;22.60;39.60;;;;;;6171968;28;80671;-57
2023/12/02 08:51:25;;;;;;;10.00;5.53;;;22.60;39.60;;;;;;6165149;28;81345;-59
2023/12/02 08:54:25;;;;;;;11.50;5.82;;;22.60;40.00;;;;;;6176391;28;80779;-60
2023/12/02 08:57:26;;;;;;;10.57;5.78;;;22.70;40.20;;;;;;6174010;28;81725;-59
2023/12/02 09:00:26;;;;;;;17.58;6.30;;;22.70;40.20;;;;;;6173581;28;80715;-62
2023/12/02 09:03:27;;;;;;;10.13;6.00;;;22.70;39.70;;;;;;6175899;28;80669;-62
2023/12/02 09:06:27;;;;;;;9.38;5.72;;;22.70;40.00;;;;;;6168596;28;80204;-67
2023/12/02 09:09:28;;;;;;;9.75;5.38;;;22.70;39.80;;;;;;6176294;28;81406;-62
2023/12/02 09:12:28;;;;;;;11.27;5.68;;;22.70;39.80;;;;;;6176804;28;81093;-58
2023/12/02 09:15:29;;;;;;;7.82;5.40;;;22.70;39.60;;;;;;6173161;28;82381;-59
2023/12/02 09:18:29;;;;;;;10.68;5.47;;;22.70;39.90;;;;;;6175094;28;80406;-58
2023/12/02 09:21:30;;;;;;;15.23;5.35;;;22.70;39.40;;;;;;6169271;28;80964;-61
2023/12/02 09:24:30;;;;;;;10.77;5.70;;;22.70;39.80;;;;;;6176027;28;82078;-62
2023/12/02 09:27:31;;;;;;;11.65;5.75;;;22.70;39.60;;;;;;6175793;28;80529;-62
2023/12/02 09:30:31;;;;;;;7.40;5.40;;;22.70;39.60;;;;;;6167795;28;80725;-64
2023/12/02 09:33:32;;;;;;;9.32;4.95;;;22.70;39.60;;;;;;6176569;28;80924;-61
2023/12/02 09:36:32;;;;;;;12.20;5.88;;;22.70;39.50;;;;;;6175898;28;80792;-61
2023/12/02 09:39:33;;;;;;;18.13;6.45;;;22.70;39.40;;;;;;6173992;28;80591;-61
2023/12/02 09:42:33;;;;;;;8.63;5.40;;;22.80;39.30;;;;;;6176880;28;80425;-61
2023/12/02 09:45:35;;;;;;;12.88;6.47;;;22.80;39.20;;;;;;6169676;28;80657;-62
2023/12/02 09:48:36;;;;;;;8.98;5.28;;;22.80;39.30;;;;;;6175533;28;80463;-60
2023/12/02 09:51:36;;;;;;;11.68;5.57;;;22.80;39.50;;;;;;6176448;28;80940;-60
2023/12/02 09:54:37;;;;;;;11.88;5.78;;;22.90;39.50;;;;;;6164548;28;80924;-62
2023/12/02 09:57:37;;;;;;;9.85;5.85;;;22.90;39.60;;;;;;6173106;28;80784;-62
2023/12/02 10:00:38;;;;;;;9.43;6.00;;;22.90;39.60;;;;;;6172238;28;80346;-61
2023/12/02 10:03:38;;;;;;;10.00;5.65;;;23.00;39.90;;;;;;6163494;28;80900;-62
2023/12/02 10:06:38;;;;;;;12.80;5.95;;;23.00;39.70;;;;;;6173337;28;80358;-61
2023/12/02 10:09:39;;;;;;;9.93;5.18;;;23.00;39.70;;;;;;6170287;28;80573;-61
2023/12/02 10:12:40;;;;;;;8.07;5.35;;;23.00;39.80;;;;;;6173469;28;82651;-61
2023/12/02 10:15:41;;;;;;;9.57;5.60;;;23.00;39.70;;;;;;6174164;28;80375;-61
2023/12/02 10:18:41;;;;;;;8.88;5.13;;;23.00;39.70;;;;;;6173147;28;80760;-62
2023/12/02 10:21:42;;;;;;;7.90;5.47;;;23.00;39.60;;;;;;6174469;28;80779;-61
2023/12/02 10:24:42;;;;;;;8.57;5.32;;;23.00;39.60;;;;;;6175033;28;81065;-61
2023/12/02 10:27:42;;;;;;;7.97;5.30;;;23.00;39.30;;;;;;6174356;28;80076;-61
2023/12/02 10:30:43;;;;;;;10.60;5.10;;;23.00;39.50;;;;;;6166793;28;80398;-61
2023/12/02 10:33:43;;;;;;;11.27;5.30;;;23.00;39.50;;;;;;6172349;28;80286;-61
2023/12/02 10:36:44;;;;;;;12.70;6.22;;;23.00;39.80;;;;;;6175534;28;81853;-59
2023/12/02 10:39:46;;;;;;;13.98;5.97;;;23.00;39.60;;;;;;6176101;28;80410;-57
2023/12/02 10:42:47;;;;;;;10.13;5.28;;;23.00;39.50;;;;;;6175431;28;80469;-59
2023/12/02 10:45:47;;;;;;;15.05;6.18;;;23.10;39.30;;;;;;6171251;28;81296;-58
2023/12/02 10:48:47;;;;;;;14.55;5.95;;;23.00;39.30;;;;;;6174856;28;80765;-59
2023/12/02 10:51:48;;;;;;;13.50;5.75;;;23.10;39.50;;;;;;6175617;28;80485;-56
2023/12/02 10:54:48;;;;;;;8.23;5.43;;;23.00;39.30;;;;;;6175151;28;81138;-62
2023/12/02 10:57:49;;;;;;;9.48;5.53;;;23.00;39.10;;;;;;6176335;28;80917;-65
2023/12/02 11:00:49;;;;;;;11.18;5.93;;;23.00;38.90;;;;;;6170987;28;80699;-65
2023/12/02 11:03:50;;;;;;;11.75;5.55;;;23.10;39.00;;;;;;6174660;28;80674;-68
2023/12/02 11:06:51;;;;;;;9.35;5.25;;;23.10;39.10;;;;;;6175675;28;81845;-69
2023/12/02 11:09:51;;;;;;;9.85;5.43;;;23.10;39.00;;;;;;6178756;28;80205;-66
2023/12/02 11:12:52;;;;;;;10.65;5.60;;;23.10;39.20;;;;;;6179283;28;80666;-60
2023/12/02 11:15:52;;;;;;;15.32;6.43;;;23.10;39.30;;;;;;6174179;28;80340;-59
2023/12/02 11:18:53;;;;;;;12.68;6.15;;;23.10;39.00;;;;;;6179458;28;80935;-60
2023/12/02 11:21:53;;;;;;;14.32;6.18;;;23.10;39.20;;;;;;6169111;28;80851;-60
2023/12/02 11:24:54;;;;;;;15.80;6.15;;;23.10;39.70;;;;;;6177991;28;82172;-62
2023/12/02 11:27:54;;;;;;;13.05;6.55;;;23.10;39.40;;;;;;6177981;28;82127;-62
2023/12/02 11:30:55;;;;;;;17.40;7.03;;;23.00;39.50;;;;;;6166418;28;80680;-69
2023/12/02 11:33:55;;;;;;;14.65;6.40;;;23.10;40.40;;;;;;6177827;28;81443;-65
2023/12/02 11:36:56;;;;;;;12.73;5.88;;;23.10;39.90;;;;;;6179821;28;80679;-67
2023/12/02 11:39:57;;;;;;;15.00;6.35;;;23.10;39.60;;;;;;6177763;28;83788;-69
2023/12/02 11:42:57;;;;;;;15.35;6.57;;;23.00;39.50;;;;;;6175581;28;80312;-61
2023/12/02 11:45:58;;;;;;;12.52;6.38;;;23.00;39.80;;;;;;6174186;28;80240;-60
2023/12/02 11:48:59;;;;;;;14.68;8.52;;;23.00;39.60;;;;;;6179344;28;81286;-61
2023/12/02 11:51:59;;;;;;;13.30;7.10;;;22.90;40.50;;;;;;6179106;28;82927;-60
2023/12/02 11:55:00;;;;;;;20.33;9.13;;;22.90;40.30;;;;;;6176637;28;81178;-59
2023/12/02 11:58:01;;;;;;;14.98;7.20;;;22.90;40.40;;;;;;6176461;28;80122;-60
2023/12/02 12:01:02;;;;;;;12.00;7.60;;;22.90;40.00;;;;;;6174363;28;85111;-62
2023/12/02 12:04:02;;;;;;;13.52;7.20;;;22.90;39.80;;;;;;6168456;28;81754;-59
2023/12/02 12:07:03;;;;;;;11.57;7.40;;;22.90;39.90;;;;;;6177476;28;80416;-62
2023/12/02 12:10:04;;;;;;;13.52;7.32;;;22.90;40.30;;;;;;6177273;28;82665;-61
2023/12/02 12:13:04;;;;;;;13.98;7.32;;;22.90;40.20;;;;;;6178194;28;80828;-62
2023/12/02 12:16:05;;;;;;;21.98;8.00;;;22.90;40.10;;;;;;6171522;28;81043;-61
2023/12/02 12:19:05;;;;;;;16.73;8.43;;;22.90;40.40;;;;;;6178086;28;80380;-65
2023/12/02 12:22:06;;;;;;;21.08;8.43;;;22.80;40.10;;;;;;6175818;28;81381;-66
2023/12/02 12:25:06;;;;;;;20.48;7.18;;;22.80;41.30;;;;;;6176213;28;82273;-63
2023/12/02 12:28:07;;;;;;;20.40;7.72;;;22.80;41.10;;;;;;6174659;28;81898;-68
2023/12/02 12:31:07;;;;;;;17.70;7.63;;;22.80;41.60;;;;;;6146503;28;80432;-66
2023/12/02 12:34:08;;;;;;;13.98;7.10;;;22.80;41.50;;;;;;6143377;28;80513;-66
2023/12/02 12:37:08;;;;;;;16.67;7.32;;;22.80;41.20;;;;;;6150317;28;80850;-66
2023/12/02 12:40:09;;;;;;;17.33;7.53;;;22.80;40.80;;;;;;6166953;28;87453;-66
2023/12/02 12:43:10;;;;;;;20.33;7.88;;;22.80;40.60;;;;;;6170544;28;80644;-60
2023/12/02 12:46:13;;;;;;;14.20;7.30;;;22.70;41.20;;;;;;6167485;28;80611;-62
2023/12/02 12:49:13;;;;;;;13.43;6.85;;;22.70;41.30;;;;;;6163443;28;80190;-61
2023/12/02 12:52:14;;;;;;;14.27;7.10;;;22.70;41.40;;;;;;6150181;28;80513;-61
2023/12/02 12:55:15;;;;;;;16.67;7.35;;;22.80;40.90;;;;;;6153389;28;80221;-61
2023/12/02 12:58:15;;;;;;;13.05;7.00;;;22.80;40.50;;;;;;6152431;28;82520;-62
2023/12/02 13:01:16;;;;;;;16.10;6.28;;;22.80;40.50;;;;;;6150477;28;81838;-61
2023/12/02 13:04:16;;;;;;;10.43;6.28;;;22.80;40.80;;;;;;6152507;28;81234;-62
2023/12/02 13:07:17;;;;;;;11.27;6.32;;;22.80;40.50;;;;;;6153133;28;80645;-62
2023/12/02 13:10:17;;;;;;;12.07;6.32;;;22.90;40.40;;;;;;6152819;28;80283;-62
2023/12/02 13:13:18;;;;;;;11.35;6.13;;;22.90;40.50;;;;;;6143970;28;81075;-62
2023/12/02 13:16:18;;;;;;;11.05;5.70;;;22.90;40.30;;;;;;6125981;28;81466;-66
2023/12/02 13:19:19;;;;;;;9.98;5.95;;;22.90;40.70;;;;;;6144302;28;87323;-59
2023/12/02 13:22:19;;;;;;;12.23;6.15;;;23.00;42.10;;;;;;6147814;28;80834;-60
2023/12/02 13:25:20;;;;;;;12.93;6.07;;;23.00;42.50;;;;;;6151272;28;81105;-59
2023/12/02 13:28:20;;;;;;;14.77;5.57;;;23.00;43.40;;;;;;6148455;28;80719;-62
2023/12/02 13:31:21;;;;;;;10.18;6.05;;;23.00;44.00;;;;;;6146634;28;81256;-57
2023/12/02 13:34:21;;;;;;;16.13;7.65;;;23.00;45.10;;;;;;6144609;28;81822;-61
2023/12/02 13:37:22;;;;;;;40.92;19.70;;;23.10;45.90;;;;;;6130189;28;83132;-60
2023/12/02 13:40:23;;;;;;;25.55;12.82;;;23.20;48.70;;;;;;6126328;28;82831;-60
2023/12/02 13:43:23;;;;;;;29.58;13.55;;;23.20;47.00;;;;;;6143900;28;83489;-61
2023/12/02 13:46:24;;;;;;;32.58;13.65;;;23.10;46.40;;;;;;6128068;28;84449;-62
2023/12/02 13:49:24;;;;;;;34.35;11.93;;;23.20;46.10;;;;;;6147138;28;83627;-62
2023/12/02 13:52:25;;;;;;;30.02;13.98;;;23.20;47.10;;;;;;6147005;28;82924;-61
2023/12/02 13:55:25;;;;;;;25.67;12.73;;;23.20;47.30;;;;;;6132892;28;83395;-60
2023/12/02 13:58:26;;;;;;;22.52;11.05;;;23.20;46.50;;;;;;6126471;28;88106;-62
2023/12/02 14:01:26;;;;;;;36.10;12.32;;;23.20;46.10;;;;;;6138047;28;83066;-61
2023/12/02 14:04:27;;;;;;;24.92;12.38;;;23.20;46.40;;;;;;6144002;28;86188;-60
2023/12/02 14:07:28;;;;;;;26.48;11.95;;;23.20;46.50;;;;;;6143236;28;83248;-59
2023/12/02 14:10:29;;;;;;;24.45;10.55;;;23.30;46.30;;;;;;6146702;28;85551;-60
2023/12/02 14:13:29;;;;;;;32.33;11.98;;;23.30;46.30;;;;;;6140016;28;83726;-61
2023/12/02 14:16:30;;;;;;;26.10;10.75;;;23.30;46.50;;;;;;6145900;28;83444;-61
2023/12/02 14:19:31;;;;;;;24.50;10.60;;;23.30;45.90;;;;;;6144364;28;83271;-60
2023/12/02 14:22:32;;;;;;;25.35;9.25;;;23.30;45.40;;;;;;6135224;28;83075;-59
2023/12/02 14:25:32;;;;;;;16.77;8.88;;;23.30;45.30;;;;;;6144980;28;82969;-56
2023/12/02 14:28:33;;;;;;;22.35;9.88;;;23.20;44.40;;;;;;6149585;28;80592;-58
2023/12/02 14:31:33;;;;;;;69.80;30.38;;;23.20;43.90;;;;;;6140315;28;84465;-58
2023/12/02 14:34:34;;;;;;;103.50;48.30;;;23.20;43.60;;;;;;6149199;28;85842;-69
2023/12/02 14:37:34;;;;;;;112.47;51.60;;;23.20;43.40;;;;;;6147013;28;83407;-68
2023/12/02 14:40:35;;;;;;;121.63;55.03;;;23.20;43.50;;;;;;6146268;28;84851;-68
2023/12/02 14:43:35;;;;;;;134.63;65.75;;;23.20;43.20;;;;;;6137438;28;83629;-69
2023/12/02 14:46:36;;;;;;;149.10;69.50;;;23.20;43.20;;;;;;6150233;28;83186;-66
2023/12/02 14:49:36;;;;;;;165.80;82.22;;;23.20;43.10;;;;;;6149905;28;83567;-63
2023/12/02 14:52:37;;;;;;;184.30;89.40;;;23.20;43.10;;;;;;6143180;28;84387;-65
2023/12/02 14:55:37;;;;;;;202.40;94.15;;;23.20;43.00;;;;;;6144751;28;83564;-67
2023/12/02 14:58:38;;;;;;;151.90;73.78;;;23.20;42.80;;;;;;6143888;28;83509;-65
2023/12/02 15:01:38;;;;;;;147.00;69.28;;;23.20;42.90;;;;;;6146660;28;83482;-66
2023/12/02 15:04:39;;;;;;;122.47;58.58;;;23.20;42.60;;;;;;6140910;28;84861;-62
2023/12/02 15:07:40;;;;;;;109.85;51.63;;;23.10;42.80;;;;;;6143476;28;83525;-65
2023/12/02 15:10:40;;;;;;;111.57;50.30;;;23.10;43.40;;;;;;6145275;28;83261;-57
2023/12/02 15:13:41;;;;;;;107.70;46.08;;;23.10;43.80;;;;;;6124553;28;84998;-58
2023/12/02 15:16:41;;;;;;;88.47;41.40;;;23.10;43.70;;;;;;6130891;28;84005;-59
2023/12/02 15:19:42;;;;;;;79.18;38.97;;;23.10;43.90;;;;;;6124227;28;83391;-59
2023/12/02 15:22:42;;;;;;;82.70;36.95;;;23.10;44.00;;;;;;6127502;28;82957;-58
2023/12/02 15:25:43;;;;;;;71.43;33.25;;;23.10;43.80;;;;;;6129207;28;84539;-53
2023/12/02 15:28:43;;;;;;;71.07;33.72;;;23.10;44.00;;;;;;6129422;28;84362;-61